Time;durP1;ratioP1;P1;durP2;ratioP2;P2;SDS_P1;SDS_P2;PMS_P1;PMS_P2;Temp;Humidity;BMP_temperature;BMP_pressure;BME280_temperature;BME280_humidity;BME280_pressure;Samples;Min_cycle;Max_cycle;Signal;HPM_P1;HPM_P2
2021/04/20 00:00:53;;;;;;;41.45;30.80;;;;;;;8.77;68.43;100142.03;5095179;28;20036;-71
2021/04/20 00:03:22;;;;;;;48.95;35.08;;;;;;;8.77;68.44;100136.88;5094594;28;20093;-70
2021/04/20 00:05:53;;;;;;;45.13;32.75;;;;;;;8.77;68.43;100139.47;5094776;28;20089;-71
2021/04/20 00:08:19;;;;;;;44.55;31.85;;;;;;;8.77;68.36;100134.28;5076310;28;20480;-70
2021/04/20 00:10:50;;;;;;;45.42;35.00;;;;;;;8.77;68.32;100133.41;5093983;28;20118;-71
2021/04/20 00:13:19;;;;;;;42.70;32.03;;;;;;;8.76;68.44;100129.97;5076388;28;20036;-71
2021/04/20 00:15:47;;;;;;;46.38;33.03;;;;;;;8.76;68.34;100126.47;5076605;28;20097;-71
2021/04/20 00:18:19;;;;;;;43.83;32.67;;;;;;;8.76;68.24;100129.06;5094712;28;20036;-71
2021/04/20 00:20:46;;;;;;;48.63;34.80;;;;;;;8.76;68.34;100134.22;5094363;28;20082;-70
2021/04/20 00:23:17;;;;;;;45.40;32.88;;;;;;;8.75;68.56;100122.16;5094413;28;20051;-71
2021/04/20 00:25:42;;;;;;;45.85;33.20;;;;;;;8.75;68.43;100127.31;5092741;28;20043;-71
2021/04/20 00:28:14;;;;;;;48.03;32.55;;;;;;;8.75;68.35;100119.56;5076186;28;20036;-70
2021/04/20 00:30:42;;;;;;;44.03;33.33;;;;;;;8.74;68.01;100116.13;5094510;28;20036;-71
2021/04/20 00:33:10;;;;;;;50.75;36.17;;;;;;;8.75;68.33;100120.44;5093783;28;20068;-70
2021/04/20 00:35:38;;;;;;;42.75;32.03;;;;;;;8.75;68.43;100119.56;5094186;28;20067;-71
2021/04/20 00:38:06;;;;;;;46.53;33.65;;;;;;;8.74;68.25;100112.66;5076018;28;20115;-71
2021/04/20 00:40:35;;;;;;;45.72;32.58;;;;;;;8.74;68.42;100113.53;5093776;28;20044;-70
2021/04/20 00:43:01;;;;;;;48.00;35.20;;;;;;;8.74;68.59;100104.88;5075877;28;20036;-71
2021/04/20 00:45:31;;;;;;;46.58;35.08;;;;;;;8.73;68.20;100104.03;5092742;28;20048;-70
2021/04/20 00:48:02;;;;;;;47.05;34.72;;;;;;;8.72;68.24;100112.63;5093524;28;20082;-71
2021/04/20 00:50:31;;;;;;;47.33;34.78;;;;;;;8.73;68.52;100110.91;5075825;28;20032;-71
2021/04/20 00:52:57;;;;;;;49.95;36.28;;;;;;;8.72;68.21;100110.03;5075583;28;20028;-71
2021/04/20 00:55:26;;;;;;;49.60;35.88;;;;;;;8.73;68.32;100100.56;5094043;28;20036;-71
2021/04/20 00:57:57;;;;;;;47.55;34.55;;;;;;;8.72;68.27;100110.03;5093836;28;20036;-70
2021/04/20 01:00:30;;;;;;;48.78;35.83;;;;;;;8.72;68.39;100112.63;5075505;28;20101;-71
2021/04/20 01:02:59;;;;;;;53.75;37.03;;;;;;;8.73;68.33;100110.91;5075355;28;20139;-71
2021/04/20 01:05:34;;;;;;;48.45;35.10;;;;;;;8.72;68.24;100102.28;5076062;28;20028;-71
2021/04/20 01:08:11;;;;;;;52.42;36.10;;;;;;;8.71;68.49;100108.28;5094294;28;20039;-70
2021/04/20 01:10:46;;;;;;;51.40;36.40;;;;;;;8.71;68.25;100113.44;5075381;28;20028;-71
2021/04/20 01:13:13;;;;;;;51.10;36.35;;;;;;;8.72;68.26;100111.75;5093579;28;20040;-71
2021/04/20 01:15:46;;;;;;;52.25;35.50;;;;;;;8.70;68.26;100111.69;5093368;28;20040;-71
2021/04/20 01:18:13;;;;;;;52.53;37.13;;;;;;;8.71;68.25;100107.44;5075655;28;20503;-71
2021/04/20 01:20:43;;;;;;;41.47;30.88;;;;;;;8.69;68.16;100097.03;5093513;28;20071;-71
2021/04/20 01:23:12;;;;;;;50.92;34.17;;;;;;;8.70;68.57;100100.50;5093685;28;20127;-71
2021/04/20 01:25:38;;;;;;;52.95;36.05;;;;;;;8.70;68.61;100103.94;5075353;28;20032;-71
2021/04/20 01:28:04;;;;;;;44.60;33.13;;;;;;;8.69;68.42;100097.03;5079065;28;20039;-72
2021/04/20 01:30:35;;;;;;;47.97;33.67;;;;;;;8.69;68.35;100091.88;5062675;28;20032;-71
2021/04/20 01:33:10;;;;;;;51.65;36.13;;;;;;;8.68;68.13;100096.19;5080395;28;20075;-71
2021/04/20 01:35:36;;;;;;;52.92;38.05;;;;;;;8.68;68.40;100098.75;5097454;28;20078;-71
2021/04/20 01:38:07;;;;;;;56.22;38.55;;;;;;;8.68;68.28;100103.03;5079975;28;20051;-70
2021/04/20 01:40:33;;;;;;;58.83;35.78;;;;;;;8.68;68.29;100093.59;5097376;28;20035;-71
2021/04/20 01:43:05;;;;;;;49.22;35.50;;;;;;;8.68;68.27;100096.19;5097639;28;20062;-69
2021/04/20 01:45:32;;;;;;;51.75;35.97;;;;;;;8.67;68.05;100091.84;5097864;28;20042;-70
2021/04/20 01:48:03;;;;;;;52.20;34.38;;;;;;;8.67;68.49;100091.84;5079579;28;20040;-71
2021/04/20 01:50:32;;;;;;;54.67;36.75;;;;;;;8.69;68.22;100091.88;5078893;28;20505;-71
2021/04/20 01:53:00;;;;;;;53.78;36.53;;;;;;;8.67;68.20;100085.78;5096749;28;20040;-71
2021/04/20 01:55:32;;;;;;;50.55;35.95;;;;;;;8.67;68.26;100086.69;5096004;28;20054;-69
2021/04/20 01:57:58;;;;;;;58.22;37.25;;;;;;;8.67;68.25;100083.19;5078899;28;20028;-69
2021/04/20 02:00:30;;;;;;;48.85;33.00;;;;;;;8.67;68.33;100086.69;5079280;28;20193;-69
2021/04/20 02:02:58;;;;;;;50.70;36.47;;;;;;;8.66;68.41;100087.50;5078444;28;20488;-71
2021/04/20 02:05:29;;;;;;;49.17;32.10;;;;;;;8.66;68.49;100092.69;5096865;28;20109;-71
2021/04/20 02:07:57;;;;;;;49.38;35.38;;;;;;;8.66;68.33;100087.50;5096765;28;20032;-71
2021/04/20 02:10:23;;;;;;;48.10;33.90;;;;;;;8.66;68.45;100084.03;5096702;28;20368;-71
2021/04/20 02:12:52;;;;;;;50.75;33.90;;;;;;;8.66;68.58;100086.63;5078718;28;20082;-71
2021/04/20 02:15:25;;;;;;;52.67;35.17;;;;;;;8.66;68.24;100089.19;5097026;28;20044;-71
2021/04/20 02:17:53;;;;;;;46.17;34.03;;;;;;;8.65;68.23;100087.44;5061676;28;20533;-71
2021/04/20 02:20:24;;;;;;;49.75;35.33;;;;;;;8.64;68.29;100086.59;5096574;28;20042;-71
2021/04/20 02:22:53;;;;;;;51.83;34.58;;;;;;;8.65;68.29;100082.28;5096370;28;20027;-71
2021/04/20 02:25:19;;;;;;;52.70;34.30;;;;;;;8.64;68.32;100085.72;5078741;28;20036;-71
2021/04/20 02:27:51;;;;;;;50.22;34.55;;;;;;;8.64;68.19;100078.84;5078527;28;20544;-71
2021/04/20 02:30:22;;;;;;;50.95;35.97;;;;;;;8.61;68.27;100076.19;5096185;28;20476;-72
2021/04/20 02:32:48;;;;;;;47.17;34.83;;;;;;;8.62;68.24;100080.50;5077973;28;20036;-71
2021/04/20 02:35:17;;;;;;;44.75;31.15;;;;;;;8.62;68.30;100084.81;5078219;28;20043;-70
2021/04/20 02:37:44;;;;;;;48.25;34.15;;;;;;;8.61;68.03;100076.19;5096369;28;20035;-71
2021/04/20 02:40:17;;;;;;;48.13;33.25;;;;;;;8.61;68.42;100086.50;5096076;28;20047;-71
2021/04/20 02:42:53;;;;;;;49.38;35.03;;;;;;;8.60;68.48;100091.66;5078366;28;20063;-71
2021/04/20 02:45:26;;;;;;;51.22;36.08;;;;;;;8.60;68.38;100078.72;5078208;28;20040;-71
2021/04/20 02:47:55;;;;;;;46.47;32.10;;;;;;;8.60;68.45;100078.72;5096035;28;20134;-72
2021/04/20 02:50:26;;;;;;;49.53;34.67;;;;;;;8.59;68.22;100076.97;5078111;28;20282;-71
2021/04/20 02:52:56;;;;;;;50.33;32.75;;;;;;;8.59;68.20;100089.91;5078403;28;20044;-71
2021/04/20 02:55:24;;;;;;;49.85;32.75;;;;;;;8.57;68.14;100079.50;5078133;28;20115;-72
2021/04/20 02:57:57;;;;;;;46.17;33.85;;;;;;;8.58;68.36;100080.41;5077628;28;20147;-71
2021/04/20 03:00:27;;;;;;;46.33;31.35;;;;;;;8.58;68.20;100080.41;5095753;28;20509;-71
2021/04/20 03:02:56;;;;;;;50.30;33.80;;;;;;;8.57;68.29;100071.75;5077746;28;20048;-69
2021/04/20 03:05:24;;;;;;;48.92;32.80;;;;;;;8.56;68.10;100074.31;5077837;28;20072;-69
2021/04/20 03:07:50;;;;;;;46.05;32.92;;;;;;;8.57;68.47;100064.00;5095828;28;20039;-69
2021/04/20 03:10:19;;;;;;;46.47;33.05;;;;;;;8.56;68.40;100066.56;5077769;28;20523;-69
2021/04/20 03:12:54;;;;;;;47.28;33.45;;;;;;;8.56;68.16;100064.88;5077642;28;20032;-69
2021/04/20 03:15:23;;;;;;;51.40;34.30;;;;;;;8.57;68.18;100065.75;5077908;28;20126;-70
2021/04/20 03:17:49;;;;;;;49.63;33.60;;;;;;;8.55;68.50;100065.72;5095640;28;20115;-70
2021/04/20 03:20:19;;;;;;;47.28;33.38;;;;;;;8.55;68.00;100064.81;5095607;28;20127;-69
2021/04/20 03:22:49;;;;;;;41.22;30.05;;;;;;;8.54;68.28;100061.38;5077151;28;20032;-70
2021/04/20 03:25:25;;;;;;;42.13;31.63;;;;;;;8.53;68.14;100051.88;5077515;28;20047;-69
2021/04/20 03:27:56;;;;;;;45.53;33.67;;;;;;;8.53;68.21;100063.06;5077428;28;20043;-69
2021/04/20 03:30:30;;;;;;;45.92;33.85;;;;;;;8.54;68.17;100056.22;5095059;28;20079;-69
2021/04/20 03:33:09;;;;;;;;;;;;;;;8.52;68.30;100055.31;5077751;28;20043;-70
2021/04/20 03:35:40;;;;;;;48.33;32.72;;;;;;;8.52;68.20;100060.47;5095385;28;19956;-70
2021/04/20 03:38:24;;;;;;;45.22;31.60;;;;;;;8.51;68.26;100045.81;5095161;28;20043;-70
2021/04/20 03:41:03;;;;;;;50.05;34.22;;;;;;;8.51;68.36;100056.13;5095533;28;20032;-70
2021/04/20 03:43:33;;;;;;;47.70;34.25;;;;;;;8.51;68.11;100049.25;5095152;28;20044;-70
2021/04/20 03:46:12;;;;;;;47.50;33.55;;;;;;;8.51;68.04;100054.41;5095042;28;20028;-70
2021/04/20 03:48:42;;;;;;;49.65;35.22;;;;;;;8.52;68.26;100055.31;5059976;28;20040;-70
2021/04/20 03:51:13;;;;;;;41.03;30.35;;;;;;;8.50;68.49;100049.22;5094005;28;20035;-70
2021/04/20 03:53:46;;;;;;;47.00;32.20;;;;;;;8.50;68.21;100049.22;5095385;28;20082;-70
2021/04/20 03:56:13;;;;;;;44.58;30.85;;;;;;;8.51;68.10;100053.56;5093828;28;20032;-70
2021/04/20 03:58:43;;;;;;;43.55;30.90;;;;;;;8.50;68.09;100050.06;5059715;28;20522;-69
2021/04/20 04:01:15;;;;;;;47.95;33.55;;;;;;;8.50;68.02;100052.66;5076439;28;20038;-70
2021/04/20 04:03:46;;;;;;;47.33;33.22;;;;;;;8.50;68.18;100044.06;5076736;28;20050;-70
2021/04/20 04:06:20;;;;;;;46.25;31.08;;;;;;;8.51;68.12;100045.81;5060360;28;20074;-70
2021/04/20 04:08:53;;;;;;;48.90;32.90;;;;;;;8.49;68.23;100042.31;5076254;28;20036;-70
2021/04/20 04:11:23;;;;;;;42.38;32.55;;;;;;;8.48;68.33;100041.44;5094377;28;20173;-71
2021/04/20 04:13:50;;;;;;;43.13;29.63;;;;;;;8.49;68.13;100043.16;5076263;28;20036;-70
2021/04/20 04:16:22;;;;;;;46.72;31.55;;;;;;;8.48;68.23;100044.03;5076372;28;20496;-70
2021/04/20 04:18:54;;;;;;;42.22;30.20;;;;;;;8.47;68.19;100037.06;5094503;28;20034;-70
2021/04/20 04:21:25;;;;;;;39.97;30.35;;;;;;;8.48;68.46;100045.72;5076328;28;20046;-70
2021/04/20 04:24:04;;;;;;;40.90;29.92;;;;;;;8.48;68.16;100046.59;5094497;28;20520;-70
2021/04/20 04:26:35;;;;;;;44.22;31.90;;;;;;;8.46;68.31;100043.06;5094040;28;20039;-70
2021/04/20 04:29:10;;;;;;;44.80;31.40;;;;;;;8.48;68.19;100040.56;5094593;28;20043;-70
2021/04/20 04:31:39;;;;;;;39.10;29.30;;;;;;;8.47;68.10;100047.41;5094300;28;20080;-70
2021/04/20 04:34:15;;;;;;;39.42;28.98;;;;;;;8.47;68.25;100042.25;5094057;28;20024;-70
2021/04/20 04:36:41;;;;;;;42.20;29.80;;;;;;;8.47;68.23;100041.34;5076044;28;20085;-70
2021/04/20 04:39:13;;;;;;;39.72;29.00;;;;;;;8.48;68.08;100048.31;5075554;28;20028;-70
2021/04/20 04:41:39;;;;;;;43.00;31.65;;;;;;;8.47;68.35;100042.25;5094559;28;20043;-70
2021/04/20 04:44:16;;;;;;;41.05;28.42;;;;;;;8.46;68.20;100050.81;5094155;28;20040;-70
2021/04/20 04:46:45;;;;;;;41.85;30.35;;;;;;;8.46;67.99;100043.06;5094035;28;20036;-70
2021/04/20 04:49:15;;;;;;;39.72;28.73;;;;;;;8.44;68.35;100052.50;5075740;28;20056;-70
2021/04/20 04:51:49;;;;;;;44.15;31.45;;;;;;;8.46;68.12;100052.53;5076243;28;20036;-70
2021/04/20 04:54:16;;;;;;;;;;;;;;;8.44;68.26;100052.50;5076506;28;20040;-70
2021/04/20 04:56:43;;;;;;;44.10;31.55;;;;;;;8.43;68.31;100055.03;5093930;28;19912;-71
2021/04/20 04:59:11;;;;;;;44.53;30.48;;;;;;;8.42;68.29;100051.56;5093572;28;20032;-69
2021/04/20 05:01:40;;;;;;;40.88;29.85;;;;;;;8.43;68.17;100052.44;5093408;28;20050;-69
2021/04/20 05:04:10;;;;;;;40.17;27.17;;;;;;;8.43;67.99;100063.66;5093900;28;20047;-70
2021/04/20 05:06:43;;;;;;;41.72;28.60;;;;;;;8.42;68.31;100059.31;5093605;28;20088;-69
2021/04/20 05:09:17;;;;;;;39.53;29.95;;;;;;;8.43;68.54;100055.03;5094075;28;20043;-70
2021/04/20 05:11:43;;;;;;;;;;;;;;;8.41;68.17;100052.41;5093416;28;20055;-70
2021/04/20 05:14:15;;;;;;;44.03;30.42;;;;;;;8.40;68.31;100049.81;5092033;28;19916;-70
2021/04/20 05:16:49;;;;;;;42.33;28.95;;;;;;;8.41;68.21;100049.81;5093401;28;20028;-70
2021/04/20 05:19:39;;;;;;;48.20;32.70;;;;;;;8.42;68.16;100063.59;5093720;28;20032;-70
2021/04/20 05:22:07;;;;;;;39.22;28.50;;;;;;;8.41;68.44;100059.31;5093710;28;20494;-71
2021/04/20 05:24:41;;;;;;;42.97;30.30;;;;;;;8.41;68.14;100061.88;5075969;28;20514;-69
2021/04/20 05:27:09;;;;;;;42.33;30.17;;;;;;;8.41;68.57;100054.13;5058850;28;20414;-69
2021/04/20 05:29:35;;;;;;;38.03;28.17;;;;;;;8.41;68.50;100061.88;5093590;28;20483;-70
2021/04/20 05:32:05;;;;;;;48.05;29.88;;;;;;;8.40;68.18;100061.00;5092196;28;20036;-70
2021/04/20 05:34:39;;;;;;;40.08;28.25;;;;;;;8.39;68.26;100059.25;5092931;28;20039;-70
2021/04/20 05:37:10;;;;;;;47.25;29.98;;;;;;;8.39;68.26;100067.00;5092099;28;20482;-69
2021/04/20 05:39:38;;;;;;;40.85;30.88;;;;;;;8.39;68.32;100059.25;5075457;28;20564;-70
2021/04/20 05:42:09;;;;;;;38.15;28.83;;;;;;;8.39;68.26;100064.41;5093145;28;20506;-70
2021/04/20 05:44:38;;;;;;;39.58;28.48;;;;;;;8.40;68.46;100066.16;5092062;28;20036;-70
2021/04/20 05:47:14;;;;;;;40.97;29.17;;;;;;;8.41;68.31;100062.75;5093200;28;20032;-70
2021/04/20 05:49:45;;;;;;;45.40;30.55;;;;;;;8.40;68.21;100068.75;5093282;28;20032;-70
2021/04/20 05:52:16;;;;;;;40.55;27.42;;;;;;;8.40;68.33;100066.16;5093180;28;20032;-70
2021/04/20 05:54:44;;;;;;;38.95;28.63;;;;;;;8.40;68.57;100065.28;5075371;28;20032;-70
2021/04/20 05:57:18;;;;;;;40.65;27.88;;;;;;;8.40;68.56;100068.75;5093605;28;20065;-70
2021/04/20 05:59:52;;;;;;;39.80;27.33;;;;;;;8.40;68.51;100073.03;5075366;28;20094;-71
2021/04/20 06:02:25;;;;;;;39.05;26.30;;;;;;;8.39;68.67;100069.56;5092969;28;20040;-70
2021/04/20 06:04:54;;;;;;;42.63;28.40;;;;;;;8.38;68.32;100071.28;5093406;28;20036;-70
2021/04/20 06:07:26;;;;;;;40.50;27.92;;;;;;;8.40;68.31;100073.03;5075086;28;20028;-70
2021/04/20 06:09:56;;;;;;;37.67;27.80;;;;;;;8.38;68.24;100076.47;5093228;28;20028;-70
2021/04/20 06:12:27;;;;;;;40.13;27.98;;;;;;;8.38;68.38;100073.88;5074877;28;20040;-71
2021/04/20 06:14:54;;;;;;;39.40;28.15;;;;;;;8.38;68.63;100073.88;5096118;28;20035;-70
2021/04/20 06:17:27;;;;;;;43.88;29.60;;;;;;;8.39;68.56;100077.31;5096804;28;20036;-71
2021/04/20 06:20:01;;;;;;;40.90;27.65;;;;;;;8.37;68.30;100079.88;5079247;28;20042;-70
2021/04/20 06:22:30;;;;;;;37.33;27.30;;;;;;;8.38;68.11;100080.72;5096843;28;20064;-71
2021/04/20 06:25:01;;;;;;;41.92;29.10;;;;;;;8.37;68.52;100079.88;5078246;28;20032;-70
2021/04/20 06:27:30;;;;;;;42.75;29.85;;;;;;;8.37;68.26;100086.72;5061750;28;20039;-70
2021/04/20 06:30:01;;;;;;;41.05;28.20;;;;;;;8.37;68.19;100081.56;5096846;28;20062;-70
2021/04/20 06:32:32;;;;;;;39.78;26.80;;;;;;;8.37;68.38;100082.47;5078467;28;20439;-71
2021/04/20 06:35:04;;;;;;;38.70;28.60;;;;;;;8.37;68.37;100091.91;5078575;28;20117;-71
2021/04/20 06:37:41;;;;;;;37.80;26.58;;;;;;;8.37;68.68;100085.03;5096064;28;20118;-70
2021/04/20 06:40:13;;;;;;;36.88;26.40;;;;;;;8.37;68.38;100087.63;5096284;28;20051;-70
2021/04/20 06:42:46;;;;;;;39.78;28.58;;;;;;;8.37;68.41;100084.16;5078339;28;20434;-71
2021/04/20 06:45:19;;;;;;;40.65;29.00;;;;;;;8.38;68.41;100091.06;5077922;28;20032;-70
2021/04/20 06:47:57;;;;;;;39.22;27.15;;;;;;;8.37;68.67;100084.16;5078263;28;20060;-71
2021/04/20 06:50:32;;;;;;;41.10;28.25;;;;;;;8.37;68.40;100082.47;5078319;28;20109;-71
2021/04/20 06:53:07;;;;;;;38.10;27.30;;;;;;;8.38;68.51;100085.91;5096619;28;20063;-71
2021/04/20 06:55:53;;;;;;;43.60;27.20;;;;;;;8.38;68.54;100080.72;5078416;28;20043;-71
2021/04/20 06:58:29;;;;;;;40.45;27.73;;;;;;;8.37;68.54;100081.56;5078046;28;20028;-71
2021/04/20 07:00:59;;;;;;;40.13;26.90;;;;;;;8.38;68.37;100083.31;5077638;28;20046;-70
2021/04/20 07:03:46;;;;;;;39.88;26.35;;;;;;;8.37;68.38;100082.47;5096348;28;20044;-71
2021/04/20 07:06:33;;;;;;;37.88;27.23;;;;;;;8.37;68.26;100081.56;5077636;28;20491;-70
2021/04/20 07:09:01;;;;;;;38.40;24.52;;;;;;;8.37;68.58;100074.72;5094399;28;20210;-70
2021/04/20 07:11:32;;;;;;;38.20;26.48;;;;;;;8.36;68.81;100078.13;5077135;28;20024;-70
2021/04/20 07:14:04;;;;;;;37.55;26.48;;;;;;;8.37;68.61;100082.47;5077716;28;20044;-71
2021/04/20 07:17:04;;;;;;;37.88;27.95;;;;;;;8.37;68.49;100082.47;5096015;28;20119;-71
2021/04/20 07:19:53;;;;;;;44.22;29.92;;;;;;;8.37;68.80;100081.56;5077391;28;20024;-71
2021/04/20 07:22:42;;;;;;;36.92;26.13;;;;;;;8.37;68.45;100076.41;5077391;28;20047;-70
2021/04/20 07:25:25;;;;;;;41.75;26.77;;;;;;;8.36;68.60;100080.72;5095688;28;20039;-70
2021/04/20 07:28:14;;;;;;;40.90;27.58;;;;;;;8.37;68.85;100076.41;5095477;28;20387;-70
2021/04/20 07:31:11;;;;;;;37.38;26.08;;;;;;;8.37;68.97;100078.97;5077539;28;20028;-70
2021/04/20 07:34:15;;;;;;;41.03;27.90;;;;;;;8.37;68.79;100079.88;5095400;28;20063;-70
2021/04/20 07:37:00;;;;;;;42.20;26.65;;;;;;;8.37;68.63;100081.56;5047745;28;20551;-70
2021/04/20 07:40:04;;;;;;;36.90;26.58;;;;;;;8.37;68.65;100077.28;5077365;28;20426;-70
2021/04/20 07:42:39;;;;;;;35.58;26.02;;;;;;;8.38;68.41;100081.63;5071245;28;20047;-70
2021/04/20 07:45:21;;;;;;;37.70;27.73;;;;;;;8.38;68.87;100080.72;5095580;28;20036;-70
2021/04/20 07:48:07;;;;;;;40.85;27.58;;;;;;;8.39;68.64;100082.47;5094388;28;20424;-71
2021/04/20 07:50:42;;;;;;;36.85;25.25;;;;;;;8.40;68.73;100084.22;5076998;28;20032;-70
2021/04/20 07:53:39;;;;;;;39.55;25.88;;;;;;;8.40;68.76;100084.22;5076854;28;20028;-69
2021/04/20 07:56:19;;;;;;;40.47;26.98;;;;;;;8.40;68.83;100080.78;5077033;28;20040;-69
2021/04/20 07:58:49;;;;;;;37.25;26.85;;;;;;;8.41;68.74;100085.97;5095092;28;20092;-71
2021/04/20 08:01:37;;;;;;;38.22;27.40;;;;;;;8.43;68.65;100086.00;5076785;28;20050;-71
2021/04/20 08:04:15;;;;;;;37.00;26.10;;;;;;;8.43;68.93;100086.91;5094931;28;20044;-71
2021/04/20 08:06:44;;;;;;;37.42;26.13;;;;;;;8.44;68.73;100085.19;5094809;28;20056;-71
2021/04/20 08:09:18;;;;;;;37.40;25.60;;;;;;;8.43;68.85;100086.91;5076489;28;20028;-72
2021/04/20 08:12:08;;;;;;;36.30;25.63;;;;;;;8.44;69.03;100083.50;5093532;28;20046;-71
2021/04/20 08:14:46;;;;;;;38.10;26.17;;;;;;;8.45;68.76;100080.06;5085787;28;20083;-71
2021/04/20 08:17:21;;;;;;;34.03;23.70;;;;;;;8.45;68.93;100074.91;5094602;28;20050;-72
2021/04/20 08:20:05;;;;;;;33.58;22.35;;;;;;;8.45;68.88;100079.19;5094489;28;20040;-71
2021/04/20 08:22:32;;;;;;;31.42;22.25;;;;;;;8.45;68.66;100086.94;5076034;28;20028;-69
2021/04/20 08:25:21;;;;;;;32.20;22.00;;;;;;;8.45;68.73;100085.25;5059573;28;20035;-72
2021/04/20 08:28:08;;;;;;;33.33;23.30;;;;;;;8.45;68.57;100082.66;5094050;28;20040;-72
2021/04/20 08:30:45;;;;;;;30.98;21.25;;;;;;;8.48;68.82;100080.19;5094281;28;20078;-73
2021/04/20 08:33:25;;;;;;;29.98;21.40;;;;;;;8.49;68.81;100081.03;5075850;28;20071;-70
2021/04/20 08:35:54;;;;;;;29.52;21.27;;;;;;;8.50;68.69;100078.50;5094027;28;20036;-71
2021/04/20 08:38:41;;;;;;;29.13;21.17;;;;;;;8.51;68.69;100084.53;5094029;28;20039;-72
2021/04/20 08:41:22;;;;;;;31.50;22.20;;;;;;;8.52;68.75;100079.41;5093538;28;20032;-71
2021/04/20 08:44:09;;;;;;;28.95;20.85;;;;;;;8.53;68.88;100081.16;5076455;28;20058;-69
2021/04/20 08:47:03;;;;;;;28.17;21.17;;;;;;;8.55;68.73;100082.91;5094199;28;20506;-72
2021/04/20 08:49:43;;;;;;;27.73;20.35;;;;;;;8.56;68.75;100076.91;5059049;28;20063;-72
2021/04/20 08:52:30;;;;;;;28.10;20.23;;;;;;;8.56;68.86;100082.97;5075922;28;20442;-71
2021/04/20 08:55:18;;;;;;;28.13;19.98;;;;;;;8.59;68.52;100075.25;5093933;28;20040;-72
2021/04/20 08:58:14;;;;;;;26.52;19.05;;;;;;;8.60;68.90;100077.00;5075796;28;20093;-72
2021/04/20 09:00:57;;;;;;;24.48;19.17;;;;;;;8.62;68.79;100077.94;5075733;28;20043;-70
2021/04/20 09:03:39;;;;;;;27.47;19.33;;;;;;;8.64;68.72;100075.41;5093936;28;20048;-69
2021/04/20 09:06:32;;;;;;;27.95;20.50;;;;;;;8.65;68.54;100077.13;5093748;28;20270;-71
2021/04/20 09:09:12;;;;;;;27.08;18.77;;;;;;;8.67;68.70;100078.91;5075786;28;20074;-72
2021/04/20 09:11:44;;;;;;;26.90;18.17;;;;;;;8.69;68.64;100073.78;5093743;28;20063;-71
2021/04/20 09:14:38;;;;;;;25.40;18.50;;;;;;;8.71;68.50;100071.25;5093309;28;20044;-70
2021/04/20 09:17:08;;;;;;;27.47;20.37;;;;;;;8.72;68.92;100073.00;5067773;28;20052;-71
2021/04/20 09:19:49;;;;;;;27.13;19.42;;;;;;;8.73;68.71;100075.59;5093563;28;20310;-71
2021/04/20 09:22:37;;;;;;;23.63;17.88;;;;;;;8.75;68.65;100070.47;5093656;28;20032;-71
2021/04/20 09:25:12;;;;;;;25.67;17.20;;;;;;;8.77;68.84;100072.28;5093006;28;20059;-72
2021/04/20 09:27:37;;;;;;;25.65;17.92;;;;;;;8.80;68.70;100076.63;5093221;28;20082;-70
2021/04/20 09:30:14;;;;;;;26.42;17.17;;;;;;;8.79;68.85;100068.00;5075201;28;20499;-72
2021/04/20 09:32:51;;;;;;;25.77;18.27;;;;;;;8.82;68.64;100070.66;5072623;28;20058;-71
2021/04/20 09:35:17;;;;;;;23.05;16.77;;;;;;;8.84;68.60;100065.53;5075464;28;20032;-71
2021/04/20 09:37:44;;;;;;;26.15;17.40;;;;;;;8.85;68.61;100072.44;5093086;28;20127;-71
2021/04/20 09:40:18;;;;;;;22.70;17.20;;;;;;;8.87;68.43;100067.31;5093609;28;20040;-71
2021/04/20 09:42:52;;;;;;;20.17;14.80;;;;;;;8.89;68.62;100079.41;5092966;28;20089;-72
2021/04/20 09:45:30;;;;;;;25.50;17.38;;;;;;;8.91;68.66;100077.75;5075479;28;20055;-71
2021/04/20 09:48:23;;;;;;;23.20;16.92;;;;;;;8.91;68.52;100070.00;5076880;28;20063;-71
2021/04/20 09:51:15;;;;;;;22.83;15.98;;;;;;;8.93;68.58;100070.03;5097153;28;20039;-71
2021/04/20 09:53:59;;;;;;;21.75;15.25;;;;;;;8.95;68.45;100065.78;5097481;28;20036;-72
2021/04/20 09:56:50;;;;;;;23.25;16.38;;;;;;;8.95;68.63;100073.53;5097157;28;20440;-71
2021/04/20 09:59:27;;;;;;;20.92;14.90;;;;;;;8.96;68.63;100068.41;5079186;28;20114;-71
2021/04/20 10:02:03;;;;;;;19.88;14.52;;;;;;;8.99;68.58;100062.41;5078932;28;20042;-71
2021/04/20 10:04:40;;;;;;;19.55;14.30;;;;;;;9.02;68.34;100070.25;5062021;28;20028;-70
2021/04/20 10:07:33;;;;;;;21.50;15.43;;;;;;;9.04;68.52;100072.84;5078839;28;20126;-71
2021/04/20 10:10:37;;;;;;;25.13;16.23;;;;;;;9.04;68.63;100073.75;5079283;28;20421;-71
2021/04/20 10:13:41;;;;;;;22.58;15.85;;;;;;;9.06;68.40;100066.00;5078715;28;20525;-69
2021/04/20 10:17:10;;;;;;;21.05;15.05;;;;;;;9.07;68.38;100071.22;5085827;28;20051;-71
2021/04/20 10:19:38;;;;;;;20.83;15.10;;;;;;;9.08;68.38;100061.75;5054119;28;20044;-71
2021/04/20 10:22:10;;;;;;;19.23;14.95;;;;;;;9.10;68.56;100062.66;5097144;28;20043;-71
2021/04/20 10:24:38;;;;;;;19.75;15.10;;;;;;;9.12;68.42;100060.97;5078441;28;20060;-71
2021/04/20 10:27:15;;;;;;;20.50;15.65;;;;;;;9.14;68.59;100056.72;5096415;28;20036;-71
2021/04/20 10:29:57;;;;;;;20.23;15.00;;;;;;;9.15;68.48;100055.88;5096551;28;20032;-71
2021/04/20 10:32:30;;;;;;;19.88;14.48;;;;;;;9.16;68.24;100060.22;5096800;28;20127;-71
2021/04/20 10:34:57;;;;;;;22.33;14.68;;;;;;;9.17;68.53;100051.63;5078230;28;20024;-71
2021/04/20 10:37:37;;;;;;;20.88;15.20;;;;;;;9.18;68.42;100055.97;5096450;28;20066;-71
2021/04/20 10:40:13;;;;;;;20.85;14.35;;;;;;;9.19;68.26;100047.34;5078373;28;20081;-71
2021/04/20 10:42:40;;;;;;;22.33;14.07;;;;;;;9.20;68.48;100056.84;5096074;28;20123;-71
2021/04/20 10:45:07;;;;;;;20.88;15.07;;;;;;;9.22;68.33;100056.88;5095938;28;20123;-71
2021/04/20 10:47:38;;;;;;;19.75;13.77;;;;;;;9.24;68.38;100056.06;5078374;28;20040;-71
2021/04/20 10:50:06;;;;;;;19.95;14.25;;;;;;;9.26;68.34;100050.94;5095939;28;20039;-71
2021/04/20 10:52:36;;;;;;;19.92;13.68;;;;;;;9.26;68.31;100044.06;5095956;28;20036;-71
2021/04/20 10:55:12;;;;;;;19.83;14.25;;;;;;;9.28;68.18;100049.25;5078186;28;20075;-71
2021/04/20 10:57:45;;;;;;;19.10;13.97;;;;;;;9.30;68.25;100042.41;5096755;28;20039;-70
2021/04/20 11:00:16;;;;;;;17.52;13.63;;;;;;;9.30;68.16;100039.81;5077822;28;20044;-71
2021/04/20 11:02:50;;;;;;;19.17;13.18;;;;;;;9.31;68.31;100038.97;5095878;28;20497;-71
2021/04/20 11:05:23;;;;;;;19.48;14.00;;;;;;;9.34;68.23;100038.19;5095910;28;20032;-71
2021/04/20 11:07:53;;;;;;;19.17;14.07;;;;;;;9.32;68.13;100034.69;5077323;28;20139;-71
2021/04/20 11:10:30;;;;;;;21.13;14.32;;;;;;;9.32;68.37;100032.97;5077735;28;20095;-71
2021/04/20 11:12:58;;;;;;;16.85;12.63;;;;;;;9.33;68.03;100026.09;5095781;28;20123;-70
2021/04/20 11:15:30;;;;;;;20.13;14.25;;;;;;;9.32;68.08;100025.19;5094633;28;20147;-70
2021/04/20 11:17:55;;;;;;;19.08;13.77;;;;;;;9.34;68.35;100031.28;5077311;28;20032;-69
2021/04/20 11:20:43;;;;;;;15.05;11.93;;;;;;;9.35;68.16;100034.72;5095615;28;20170;-71
2021/04/20 11:23:12;;;;;;;18.63;13.57;;;;;;;9.35;68.29;100027.84;5077428;28;20123;-72
2021/04/20 11:25:43;;;;;;;17.95;12.80;;;;;;;9.36;68.33;100021.84;5095521;28;20055;-71
2021/04/20 11:28:16;;;;;;;17.85;14.50;;;;;;;9.36;68.02;100020.97;5095319;28;20039;-71
2021/04/20 11:30:55;;;;;;;16.27;12.35;;;;;;;9.37;68.23;100012.34;5094857;28;20131;-71
2021/04/20 11:33:49;;;;;;;18.35;13.68;;;;;;;9.37;68.31;100013.25;5077634;28;20043;-70
2021/04/20 11:36:27;;;;;;;18.02;13.95;;;;;;;9.37;68.08;100015.84;5087386;28;20040;-71
2021/04/20 11:39:00;;;;;;;15.80;11.98;;;;;;;9.39;68.19;100013.25;5076791;28;20047;-71
2021/04/20 11:41:37;;;;;;;18.52;12.82;;;;;;;9.39;68.22;100010.69;5077391;28;20414;-71
2021/04/20 11:44:05;;;;;;;16.63;12.27;;;;;;;9.39;68.26;100001.22;5095283;28;20036;-71
2021/04/20 11:46:33;;;;;;;19.30;12.85;;;;;;;9.40;68.22;100002.97;5094972;28;20040;-71
2021/04/20 11:49:30;;;;;;;15.93;11.63;;;;;;;9.41;68.13;100006.41;5094894;28;20127;-71